Аэропорт: Елизово. Петропавловск-Камчатский

ICAO: UHPP

METAR:
2018/11/19 10:00
UHPP 191000Z 36003MPS 350V050 9999 NSC M08/M09 Q1013 R34L/850542 NOSIG RMK QFE756/1009
METAR:
2018/11/19 09:21
TAF UHPP 190746Z 1909/2015 01003G10MPS 9999 NSC 
     FM200000 16003G12MPS 9999 SCT030CB BKN050 
     FM200900 12003G12MPS 9999 BKN020CB OVC050 
      TEMPO 2009/2015 2000 SHSN SCT005 OVC015CB